Time;durP1;ratioP1;P1;durP2;ratioP2;P2;SDS_P1;SDS_P2;PMS_P1;PMS_P2;Temp;Humidity;BMP_temperature;BMP_pressure;BME280_temperature;BME280_humidity;BME280_pressure;Samples;Min_cycle;Max_cycle;Signal;HPM_P1;HPM_P2
2020/12/19 00:02:23;;;;;;;60.07;18.20;;;;;;;;;;4976624;28;20210;-75
2020/12/19 00:04:49;;;;;;;35.40;19.37;;;;;;;;;;4976842;28;20207;-75
2020/12/19 00:07:15;;;;;;;44.07;18.93;;;;;;;;;;4976699;28;20188;-75
2020/12/19 00:09:41;;;;;;;46.67;19.77;;;;;;;;;;4976508;28;20188;-75
2020/12/19 00:12:08;;;;;;;37.90;17.87;;;;;;;;;;4976805;28;20211;-75
2020/12/19 00:14:34;;;;;;;53.47;18.70;;;;;;;;;;4975165;28;20196;-75
2020/12/19 00:17:00;;;;;;;37.93;18.90;;;;;;;;;;4976460;28;20245;-75
2020/12/19 00:19:26;;;;;;;43.70;18.50;;;;;;;;;;4976442;28;20183;-75
2020/12/19 00:21:52;;;;;;;50.60;19.83;;;;;;;;;;4975020;28;20589;-76
2020/12/19 00:24:18;;;;;;;43.97;19.40;;;;;;;;;;4976436;28;20643;-76
2020/12/19 00:26:44;;;;;;;44.40;17.90;;;;;;;;;;4976326;28;20196;-75
2020/12/19 00:29:11;;;;;;;41.27;18.73;;;;;;;;;;4976189;28;20173;-74
2020/12/19 00:31:38;;;;;;;65.47;17.53;;;;;;;;;;4976103;28;20198;-75
2020/12/19 00:34:05;;;;;;;55.97;19.00;;;;;;;;;;4976469;28;20204;-75
2020/12/19 00:36:32;;;;;;;42.23;19.00;;;;;;;;;;4975925;28;20738;-75
2020/12/19 00:38:58;;;;;;;48.57;18.90;;;;;;;;;;4974965;28;20267;-75
2020/12/19 00:41:25;;;;;;;53.63;17.77;;;;;;;;;;4972184;28;20591;-76
2020/12/19 00:43:53;;;;;;;49.50;19.50;;;;;;;;;;4975848;28;20271;-75
2020/12/19 00:46:20;;;;;;;53.87;20.43;;;;;;;;;;4975746;28;20222;-75
2020/12/19 00:48:46;;;;;;;81.80;21.60;;;;;;;;;;4976264;28;20180;-75
2020/12/19 00:51:13;;;;;;;60.77;21.87;;;;;;;;;;4976268;28;20187;-75
2020/12/19 00:53:43;;;;;;;47.83;20.30;;;;;;;;;;4975944;28;20239;-76
2020/12/19 00:56:22;;;;;;;55.27;18.87;;;;;;;;;;4978219;28;20192;-76
2020/12/19 00:58:49;;;;;;;38.67;19.70;;;;;;;;;;4980162;28;20267;-74
2020/12/19 01:01:16;;;;;;;87.07;21.97;;;;;;;;;;4978547;28;20662;-76
2020/12/19 01:03:44;;;;;;;45.57;21.10;;;;;;;;;;4977083;28;20184;-75
2020/12/19 01:06:13;;;;;;;87.70;23.53;;;;;;;;;;4974440;28;20203;-74
2020/12/19 01:08:40;;;;;;;79.07;22.83;;;;;;;;;;4975980;28;20188;-75
2020/12/19 01:11:06;;;;;;;119.77;22.43;;;;;;;;;;4975455;28;20185;-75
2020/12/19 01:13:32;;;;;;;101.00;22.63;;;;;;;;;;4975644;28;20219;-75
2020/12/19 01:15:58;;;;;;;78.33;25.57;;;;;;;;;;4975159;28;20212;-76
2020/12/19 01:18:24;;;;;;;62.00;23.07;;;;;;;;;;4974205;28;20232;-75
2020/12/19 01:20:50;;;;;;;56.47;21.83;;;;;;;;;;4975298;28;20180;-76
2020/12/19 01:23:16;;;;;;;50.20;19.13;;;;;;;;;;4975163;28;20200;-74
2020/12/19 01:25:42;;;;;;;46.57;18.83;;;;;;;;;;4960605;28;20200;-75
2020/12/19 01:28:08;;;;;;;53.63;18.87;;;;;;;;;;4960319;28;20184;-75
2020/12/19 01:30:34;;;;;;;34.87;17.67;;;;;;;;;;4975110;28;20298;-75
2020/12/19 01:33:00;;;;;;;60.67;19.80;;;;;;;;;;4973679;28;20212;-75
2020/12/19 01:35:26;;;;;;;47.30;18.80;;;;;;;;;;4973551;28;20250;-76
2020/12/19 01:37:53;;;;;;;57.07;18.10;;;;;;;;;;4974817;28;20188;-75
2020/12/19 01:40:19;;;;;;;40.57;18.23;;;;;;;;;;4969860;28;20185;-75
2020/12/19 01:42:45;;;;;;;35.13;18.33;;;;;;;;;;4975017;28;20294;-75
2020/12/19 01:45:12;;;;;;;50.87;17.97;;;;;;;;;;4963250;28;20615;-76
2020/12/19 01:47:39;;;;;;;67.30;18.33;;;;;;;;;;4965196;28;20228;-75
2020/12/19 01:50:06;;;;;;;63.53;15.83;;;;;;;;;;4959738;28;20192;-76
2020/12/19 01:52:32;;;;;;;53.97;17.33;;;;;;;;;;4961022;28;20670;-75
2020/12/19 01:55:00;;;;;;;39.37;16.60;;;;;;;;;;4973436;28;20215;-75
2020/12/19 01:57:29;;;;;;;33.20;15.70;;;;;;;;;;4974697;28;20172;-75
2020/12/19 01:59:55;;;;;;;49.73;16.43;;;;;;;;;;4974584;28;20239;-75
2020/12/19 02:02:23;;;;;;;65.00;17.30;;;;;;;;;;4974466;28;20237;-76
2020/12/19 02:04:49;;;;;;;53.70;16.40;;;;;;;;;;4974505;28;20184;-75
2020/12/19 02:07:15;;;;;;;49.97;16.03;;;;;;;;;;4974535;28;20192;-76
2020/12/19 02:09:42;;;;;;;51.33;14.90;;;;;;;;;;4974725;28;20238;-75
2020/12/19 02:12:09;;;;;;;42.20;14.53;;;;;;;;;;4974725;28;20180;-75
2020/12/19 02:14:35;;;;;;;64.40;14.17;;;;;;;;;;4974274;28;20234;-75
2020/12/19 02:17:06;;;;;;;45.93;15.00;;;;;;;;;;4974731;28;20209;-75
2020/12/19 02:19:33;;;;;;;34.13;16.63;;;;;;;;;;4978872;28;20184;-76
2020/12/19 02:21:59;;;;;;;32.03;14.60;;;;;;;;;;4980786;28;20291;-75
2020/12/19 02:24:26;;;;;;;40.30;15.20;;;;;;;;;;4980974;28;20177;-76
2020/12/19 02:26:53;;;;;;;60.60;14.60;;;;;;;;;;4980778;28;20196;-75
2020/12/19 02:29:19;;;;;;;35.27;15.80;;;;;;;;;;4980729;28;20176;-76
2020/12/19 02:31:46;;;;;;;57.83;14.67;;;;;;;;;;4980753;28;20706;-75
2020/12/19 02:34:13;;;;;;;45.13;17.00;;;;;;;;;;4981072;28;20191;-75
2020/12/19 02:36:40;;;;;;;41.73;14.90;;;;;;;;;;4980884;28;20214;-76
2020/12/19 02:39:06;;;;;;;57.83;24.43;;;;;;;;;;4980763;28;20181;-75
2020/12/19 02:41:39;;;;;;;44.13;16.27;;;;;;;;;;4977415;28;20212;-75
2020/12/19 02:44:07;;;;;;;35.20;15.93;;;;;;;;;;4980712;28;20207;-75
2020/12/19 02:46:34;;;;;;;73.83;26.47;;;;;;;;;;4968010;28;20205;-75
2020/12/19 02:49:00;;;;;;;59.63;19.70;;;;;;;;;;4960034;28;20648;-76
2020/12/19 02:51:26;;;;;;;99.97;32.70;;;;;;;;;;4971861;28;20188;-76
2020/12/19 02:53:52;;;;;;;46.27;22.47;;;;;;;;;;4979289;28;20654;-75
2020/12/19 02:56:18;;;;;;;54.53;19.67;;;;;;;;;;4979254;28;20283;-75
2020/12/19 02:58:45;;;;;;;75.40;17.97;;;;;;;;;;4980897;28;20182;-76
2020/12/19 03:01:11;;;;;;;46.43;17.50;;;;;;;;;;4980650;28;20255;-75
2020/12/19 03:03:37;;;;;;;48.13;20.57;;;;;;;;;;4979356;28;20564;-75
2020/12/19 03:06:03;;;;;;;41.83;19.77;;;;;;;;;;4979164;28;20256;-75
2020/12/19 03:08:29;;;;;;;49.93;16.33;;;;;;;;;;4979210;28;20180;-75
2020/12/19 03:10:55;;;;;;;44.80;15.50;;;;;;;;;;4980605;28;20184;-75
2020/12/19 03:13:22;;;;;;;47.30;15.33;;;;;;;;;;4968910;28;20212;-75
2020/12/19 03:15:48;;;;;;;46.87;15.97;;;;;;;;;;4950288;28;20210;-76
2020/12/19 03:18:15;;;;;;;36.20;15.07;;;;;;;;;;4966230;28;20211;-76
2020/12/19 03:20:41;;;;;;;39.73;15.50;;;;;;;;;;4978439;28;20196;-75
2020/12/19 03:23:07;;;;;;;29.57;14.77;;;;;;;;;;4980246;28;20205;-75
2020/12/19 03:25:34;;;;;;;31.20;15.53;;;;;;;;;;4979723;28;20200;-76
2020/12/19 03:28:00;;;;;;;31.70;12.53;;;;;;;;;;4980177;28;20177;-75
2020/12/19 03:30:27;;;;;;;30.47;13.80;;;;;;;;;;4976810;28;20204;-76
2020/12/19 03:32:53;;;;;;;32.43;13.50;;;;;;;;;;4977170;28;20663;-75
2020/12/19 03:35:20;;;;;;;25.57;13.67;;;;;;;;;;4977174;28;20679;-75
2020/12/19 03:37:46;;;;;;;24.47;12.67;;;;;;;;;;4977549;28;20195;-75
2020/12/19 03:40:12;;;;;;;32.73;13.60;;;;;;;;;;4973401;28;20197;-74
2020/12/19 03:42:38;;;;;;;27.70;12.50;;;;;;;;;;4977406;28;20215;-74
2020/12/19 03:45:05;;;;;;;26.47;12.83;;;;;;;;;;4975524;28;20212;-75
2020/12/19 03:47:31;;;;;;;23.57;12.23;;;;;;;;;;4968993;23;20411;-77
2020/12/19 03:49:57;;;;;;;24.30;11.57;;;;;;;;;;4943569;29;20228;-77
2020/12/19 03:52:24;;;;;;;21.60;11.30;;;;;;;;;;4951217;28;20639;-77
2020/12/19 03:54:50;;;;;;;19.20;12.10;;;;;;;;;;4937482;29;20205;-77
2020/12/19 03:57:16;;;;;;;19.23;12.90;;;;;;;;;;4938462;29;20284;-77
2020/12/19 03:59:43;;;;;;;18.43;12.90;;;;;;;;;;4938372;29;20185;-76
2020/12/19 04:02:09;;;;;;;32.67;11.00;;;;;;;;;;4938025;29;20198;-77
2020/12/19 04:04:35;;;;;;;35.57;10.43;;;;;;;;;;4937912;29;20178;-77
2020/12/19 04:07:02;;;;;;;18.33;10.83;;;;;;;;;;4936981;29;20639;-77
2020/12/19 04:09:28;;;;;;;11.17;10.03;;;;;;;;;;4938100;29;20185;-77
2020/12/19 04:11:55;;;;;;;22.83;10.57;;;;;;;;;;4938841;29;20586;-77
2020/12/19 04:14:21;;;;;;;12.30;10.43;;;;;;;;;;4937898;29;20189;-76
2020/12/19 04:16:47;;;;;;;11.30;10.10;;;;;;;;;;4937750;29;20575;-77
2020/12/19 04:19:13;;;;;;;19.83;9.90;;;;;;;;;;4936610;29;20205;-77
2020/12/19 04:21:39;;;;;;;14.50;9.20;;;;;;;;;;4936391;29;20202;-77
2020/12/19 04:24:06;;;;;;;15.27;10.20;;;;;;;;;;4938035;29;20228;-77
2020/12/19 04:26:32;;;;;;;10.93;8.87;;;;;;;;;;4920585;29;20258;-77
2020/12/19 04:28:58;;;;;;;18.10;9.90;;;;;;;;;;4937887;29;20182;-77
2020/12/19 04:31:24;;;;;;;13.87;10.07;;;;;;;;;;4937623;29;20185;-77
2020/12/19 04:33:51;;;;;;;9.73;8.57;;;;;;;;;;4937801;29;20196;-77
2020/12/19 04:36:17;;;;;;;11.70;8.77;;;;;;;;;;4936492;29;20316;-77
2020/12/19 04:38:43;;;;;;;10.07;8.93;;;;;;;;;;4937696;29;20291;-77
2020/12/19 04:41:10;;;;;;;12.43;8.83;;;;;;;;;;4937098;29;20548;-77
2020/12/19 04:43:36;;;;;;;11.90;9.30;;;;;;;;;;4935916;29;20221;-77
2020/12/19 04:46:03;;;;;;;12.87;8.37;;;;;;;;;;4937338;29;20220;-77
2020/12/19 04:48:30;;;;;;;18.40;9.03;;;;;;;;;;4937412;29;20213;-77
2020/12/19 04:50:56;;;;;;;9.53;8.53;;;;;;;;;;4937155;29;20177;-77
2020/12/19 04:53:23;;;;;;;12.27;8.13;;;;;;;;;;4937454;29;20188;-77
2020/12/19 04:55:49;;;;;;;27.83;8.30;;;;;;;;;;4935674;29;20212;-77
2020/12/19 04:58:20;;;;;;;9.53;8.00;;;;;;;;;;4937071;29;20181;-76
2020/12/19 05:00:47;;;;;;;10.03;8.43;;;;;;;;;;4933342;29;20194;-76
2020/12/19 05:03:13;;;;;;;11.67;8.77;;;;;;;;;;4935729;29;20221;-76
2020/12/19 05:05:41;;;;;;;14.67;8.90;;;;;;;;;;4927854;29;20175;-76
2020/12/19 05:08:07;;;;;;;22.67;9.50;;;;;;;;;;4935707;29;20637;-77
2020/12/19 05:10:33;;;;;;;26.53;10.83;;;;;;;;;;4935151;29;20209;-77
2020/12/19 05:12:59;;;;;;;17.20;9.57;;;;;;;;;;4934744;29;20174;-77
2020/12/19 05:15:25;;;;;;;19.50;11.40;;;;;;;;;;4935539;29;20633;-76
2020/12/19 05:17:56;;;;;;;15.40;9.87;;;;;;;;;;4936997;29;20267;-77
2020/12/19 05:20:23;;;;;;;16.60;10.07;;;;;;;;;;4937028;29;20185;-77
2020/12/19 05:22:50;;;;;;;22.80;10.13;;;;;;;;;;4936484;29;20579;-77
2020/12/19 05:25:17;;;;;;;29.90;10.97;;;;;;;;;;4936599;29;20588;-77
2020/12/19 05:27:44;;;;;;;11.63;10.43;;;;;;;;;;4937280;29;20202;-77
2020/12/19 05:30:10;;;;;;;19.03;11.60;;;;;;;;;;4935264;29;20688;-76
2020/12/19 05:32:42;;;;;;;22.70;12.50;;;;;;;;;;4936737;29;20197;-77
2020/12/19 05:35:08;;;;;;;28.50;12.63;;;;;;;;;;4936706;29;20197;-77
2020/12/19 05:37:34;;;;;;;47.60;14.07;;;;;;;;;;4936654;29;20209;-76
2020/12/19 05:40:06;;;;;;;50.17;14.80;;;;;;;;;;4936687;29;20190;-77
2020/12/19 05:42:32;;;;;;;29.73;14.40;;;;;;;;;;4936278;29;20672;-76
2020/12/19 05:44:58;;;;;;;44.27;14.73;;;;;;;;;;4935857;29;20173;-77
2020/12/19 05:47:24;;;;;;;27.70;14.13;;;;;;;;;;4934567;29;20304;-77
2020/12/19 05:49:51;;;;;;;27.87;14.63;;;;;;;;;;4936437;29;20189;-77
2020/12/19 05:52:20;;;;;;;28.17;15.17;;;;;;;;;;4936204;29;20657;-77
2020/12/19 05:54:46;;;;;;;26.10;13.90;;;;;;;;;;4935717;29;20186;-77
2020/12/19 05:57:13;;;;;;;26.93;11.97;;;;;;;;;;4935975;29;20209;-77
2020/12/19 05:59:40;;;;;;;41.30;11.83;;;;;;;;;;4936353;29;20317;-77
2020/12/19 06:02:06;;;;;;;19.00;11.53;;;;;;;;;;4936274;29;20208;-77
2020/12/19 06:04:33;;;;;;;25.40;13.00;;;;;;;;;;4936230;29;20174;-77
2020/12/19 06:07:00;;;;;;;23.27;12.50;;;;;;;;;;4934659;29;20198;-77
2020/12/19 06:09:26;;;;;;;15.47;12.17;;;;;;;;;;4934704;29;20199;-77
2020/12/19 06:12:06;;;;;;;34.47;11.53;;;;;;;;;;4936204;29;20208;-77
2020/12/19 06:14:35;;;;;;;33.50;12.73;;;;;;;;;;4936057;29;20670;-77
2020/12/19 06:17:08;;;;;;;24.03;13.23;;;;;;;;;;4935912;29;20201;-78
2020/12/19 06:19:35;;;;;;;22.07;12.53;;;;;;;;;;4935872;29;20679;-77
2020/12/19 06:22:02;;;;;;;20.13;12.57;;;;;;;;;;4935741;29;20209;-77
2020/12/19 06:24:40;;;;;;;31.50;14.20;;;;;;;;;;4935855;29;20178;-77
2020/12/19 06:27:11;;;;;;;30.97;12.80;;;;;;;;;;4935783;29;20194;-77
2020/12/19 06:29:38;;;;;;;17.30;12.57;;;;;;;;;;4936041;29;20170;-77
2020/12/19 06:32:05;;;;;;;31.27;15.10;;;;;;;;;;4935339;29;20186;-77
2020/12/19 06:34:31;;;;;;;67.30;15.93;;;;;;;;;;4936049;29;20181;-77
2020/12/19 06:36:57;;;;;;;23.20;13.17;;;;;;;;;;4934094;29;20205;-77
2020/12/19 06:39:24;;;;;;;67.23;14.20;;;;;;;;;;4935391;29;20265;-77
2020/12/19 06:41:55;;;;;;;24.90;13.17;;;;;;;;;;4935447;29;20198;-77
2020/12/19 06:44:24;;;;;;;36.60;15.23;;;;;;;;;;4935192;29;20172;-77
2020/12/19 06:46:51;;;;;;;21.00;12.87;;;;;;;;;;4934093;29;20637;-77
2020/12/19 06:49:23;;;;;;;25.17;13.33;;;;;;;;;;4934390;29;20174;-77
2020/12/19 06:51:59;;;;;;;21.03;13.63;;;;;;;;;;4934342;29;20185;-77
2020/12/19 06:54:28;;;;;;;25.73;13.73;;;;;;;;;;4935572;29;20228;-77
2020/12/19 06:56:55;;;;;;;24.53;14.80;;;;;;;;;;4935614;29;20224;-77
2020/12/19 06:59:27;;;;;;;27.67;14.30;;;;;;;;;;4935893;29;20182;-77
2020/12/19 07:02:12;;;;;;;27.50;15.90;;;;;;;;;;4934172;29;20673;-77
2020/12/19 07:04:38;;;;;;;40.80;18.07;;;;;;;;;;4936348;29;20178;-77
2020/12/19 07:07:08;;;;;;;34.47;17.23;;;;;;;;;;4936927;29;20581;-77
2020/12/19 07:09:34;;;;;;;24.83;15.27;;;;;;;;;;4937206;29;20256;-80
2020/12/19 07:12:00;;;;;;;25.37;15.73;;;;;;;;;;4942522;29;20583;-79
2020/12/19 07:14:38;;;;;;;31.47;15.70;;;;;;;;;;4941805;29;20260;-78
2020/12/19 07:17:14;;;;;;;32.93;16.17;;;;;;;;;;4942397;29;20280;-79
2020/12/19 07:19:40;;;;;;;33.60;16.53;;;;;;;;;;4950434;29;20173;-80
2020/12/19 07:22:06;;;;;;;50.90;16.97;;;;;;;;;;4946549;28;20204;-80
2020/12/19 07:24:32;;;;;;;32.10;16.80;;;;;;;;;;4938904;29;20555;-80
2020/12/19 07:26:58;;;;;;;27.67;16.23;;;;;;;;;;4940285;29;20229;-79
2020/12/19 07:29:25;;;;;;;32.80;17.57;;;;;;;;;;4940592;29;20533;-79
2020/12/19 07:31:52;;;;;;;33.90;18.03;;;;;;;;;;4940398;29;20181;-80
2020/12/19 07:34:18;;;;;;;33.37;15.83;;;;;;;;;;4939264;29;20181;-80
2020/12/19 07:36:46;;;;;;;41.70;18.27;;;;;;;;;;4940158;29;20202;-79
2020/12/19 07:39:13;;;;;;;34.20;17.40;;;;;;;;;;4940067;29;20273;-80
2020/12/19 07:41:40;;;;;;;37.67;18.40;;;;;;;;;;4939775;29;20182;-79
2020/12/19 07:44:19;;;;;;;30.20;16.83;;;;;;;;;;4939769;29;20178;-80
2020/12/19 07:46:48;;;;;;;26.20;15.73;;;;;;;;;;4939898;29;20213;-80
2020/12/19 07:49:24;;;;;;;39.60;16.57;;;;;;;;;;4938066;29;20181;-79
2020/12/19 07:51:51;;;;;;;44.17;16.63;;;;;;;;;;4939498;29;20173;-79
2020/12/19 07:54:17;;;;;;;35.30;17.90;;;;;;;;;;4939320;29;20185;-80
2020/12/19 07:56:44;;;;;;;66.57;18.07;;;;;;;;;;4937961;29;20222;-79
2020/12/19 07:59:10;;;;;;;40.40;18.03;;;;;;;;;;4939767;29;20269;-79
2020/12/19 08:01:40;;;;;;;68.03;17.57;;;;;;;;;;4937865;29;20233;-79
2020/12/19 08:04:06;;;;;;;34.57;19.67;;;;;;;;;;4939964;29;20244;-79
2020/12/19 08:06:45;;;;;;;44.57;18.87;;;;;;;;;;4939214;29;20202;-79
2020/12/19 08:09:12;;;;;;;32.33;18.40;;;;;;;;;;4939131;29;20181;-80
2020/12/19 08:11:45;;;;;;;51.23;20.23;;;;;;;;;;4938427;29;20288;-79
2020/12/19 08:14:11;;;;;;;42.20;18.57;;;;;;;;;;4939571;29;20177;-79
2020/12/19 08:16:38;;;;;;;60.97;19.47;;;;;;;;;;4938691;29;20213;-79
2020/12/19 08:19:05;;;;;;;50.20;17.87;;;;;;;;;;4939068;29;20201;-80
2020/12/19 08:21:31;;;;;;;48.77;19.07;;;;;;;;;;4939098;29;20740;-79
2020/12/19 08:23:58;;;;;;;41.80;18.50;;;;;;;;;;4939244;29;20212;-80
2020/12/19 08:26:24;;;;;;;47.67;17.87;;;;;;;;;;4939131;29;20198;-79
2020/12/19 08:29:03;;;;;;;54.13;18.17;;;;;;;;;;4938927;29;20661;-79
2020/12/19 08:31:29;;;;;;;42.87;20.20;;;;;;;;;;4938794;29;20188;-79
2020/12/19 08:33:57;;;;;;;37.70;18.77;;;;;;;;;;4938476;29;20220;-79
2020/12/19 08:36:23;;;;;;;32.43;18.30;;;;;;;;;;4937121;29;20228;-79
2020/12/19 08:38:49;;;;;;;42.00;19.53;;;;;;;;;;4936908;29;20264;-79
2020/12/19 08:41:19;;;;;;;41.43;18.30;;;;;;;;;;4936693;29;20166;-79
2020/12/19 08:43:46;;;;;;;37.13;18.63;;;;;;;;;;4937907;29;20252;-79
2020/12/19 08:46:14;;;;;;;40.37;20.20;;;;;;;;;;4938310;29;20217;-79
2020/12/19 08:48:40;;;;;;;39.93;20.47;;;;;;;;;;4936858;29;20264;-79
2020/12/19 08:51:18;;;;;;;53.10;18.90;;;;;;;;;;4937944;29;20189;-78
2020/12/19 08:53:44;;;;;;;39.50;19.23;;;;;;;;;;4938154;29;20180;-79
2020/12/19 08:56:14;;;;;;;38.80;19.80;;;;;;;;;;4937926;29;20540;-79
2020/12/19 08:58:41;;;;;;;50.63;17.53;;;;;;;;;;4937841;29;20188;-79
2020/12/19 09:01:14;;;;;;;32.47;18.03;;;;;;;;;;4937697;29;20181;-79
2020/12/19 09:03:41;;;;;;;40.70;18.80;;;;;;;;;;4936537;29;20201;-79
2020/12/19 09:06:09;;;;;;;50.40;19.47;;;;;;;;;;4937945;29;20208;-78
2020/12/19 09:08:35;;;;;;;33.77;18.40;;;;;;;;;;4937636;29;20178;-79
2020/12/19 09:11:01;;;;;;;62.53;19.03;;;;;;;;;;4937429;29;20224;-79
2020/12/19 09:13:28;;;;;;;39.03;19.83;;;;;;;;;;4937342;29;20186;-79
2020/12/19 09:15:57;;;;;;;53.40;19.70;;;;;;;;;;4936470;29;20677;-79
2020/12/19 09:18:25;;;;;;;55.17;19.83;;;;;;;;;;4938288;29;20225;-79
2020/12/19 09:20:58;;;;;;;59.77;23.77;;;;;;;;;;4937523;29;20261;-79
2020/12/19 09:23:25;;;;;;;48.20;22.17;;;;;;;;;;4937236;29;20205;-79
2020/12/19 09:25:53;;;;;;;52.13;22.77;;;;;;;;;;4936051;29;20683;-80
2020/12/19 09:28:19;;;;;;;50.43;23.07;;;;;;;;;;4936670;29;20229;-79
2020/12/19 09:30:45;;;;;;;51.57;20.73;;;;;;;;;;4935841;29;20257;-79
2020/12/19 09:33:11;;;;;;;45.67;20.27;;;;;;;;;;4943842;29;20313;-79
2020/12/19 09:35:37;;;;;;;46.33;19.40;;;;;;;;;;4955778;28;20247;-79
2020/12/19 09:38:03;;;;;;;39.57;20.63;;;;;;;;;;4936024;29;20229;-78
2020/12/19 09:40:30;;;;;;;61.00;18.60;;;;;;;;;;4935482;29;20181;-80
2020/12/19 09:42:57;;;;;;;44.67;18.80;;;;;;;;;;4937286;29;20229;-80
2020/12/19 09:45:23;;;;;;;47.63;19.03;;;;;;;;;;4936692;29;20180;-78
2020/12/19 09:47:51;;;;;;;31.80;19.23;;;;;;;;;;4974624;23;20231;-76
2020/12/19 09:50:17;;;;;;;34.33;20.77;;;;;;;;;;4953293;28;20180;-77
2020/12/19 09:52:44;;;;;;;37.57;21.37;;;;;;;;;;4972807;28;20234;-78
2020/12/19 09:55:10;;;;;;;25.27;17.20;;;;;;;;;;4975386;28;20211;-76
2020/12/19 09:57:36;;;;;;;24.00;16.37;;;;;;;;;;4962611;28;20678;-76
2020/12/19 10:00:04;;;;;;;23.60;16.33;;;;;;;;;;4973622;28;20180;-77
2020/12/19 10:02:30;;;;;;;42.03;16.43;;;;;;;;;;4973768;28;20203;-77
2020/12/19 10:04:56;;;;;;;25.20;17.70;;;;;;;;;;4974816;28;20650;-77
2020/12/19 10:07:23;;;;;;;24.60;16.77;;;;;;;;;;4974051;28;20193;-78
2020/12/19 10:09:49;;;;;;;20.70;15.53;;;;;;;;;;4971678;28;20183;-80
2020/12/19 10:12:15;;;;;;;25.70;15.47;;;;;;;;;;4974565;28;20191;-78
2020/12/19 10:14:41;;;;;;;15.70;12.87;;;;;;;;;;4974383;28;20176;-78
2020/12/19 10:17:07;;;;;;;16.43;12.00;;;;;;;;;;4975063;28;20215;-78
2020/12/19 10:19:34;;;;;;;17.30;13.40;;;;;;;;;;4975791;28;20234;-78
2020/12/19 10:22:00;;;;;;;19.97;13.90;;;;;;;;;;4975261;28;20200;-78
2020/12/19 10:24:27;;;;;;;19.10;14.47;;;;;;;;;;4975294;28;20251;-78
2020/12/19 10:26:53;;;;;;;13.53;11.40;;;;;;;;;;4975369;28;20202;-78
2020/12/19 10:29:19;;;;;;;13.20;11.60;;;;;;;;;;4975526;28;20177;-78
2020/12/19 10:31:45;;;;;;;17.00;13.13;;;;;;;;;;4975264;28;20231;-77
2020/12/19 10:34:11;;;;;;;17.20;12.50;;;;;;;;;;4975213;28;20215;-78
2020/12/19 10:36:37;;;;;;;13.97;12.50;;;;;;;;;;4975055;28;20220;-78
2020/12/19 10:39:03;;;;;;;18.47;13.10;;;;;;;;;;4974047;28;20176;-77
2020/12/19 10:41:30;;;;;;;20.70;13.53;;;;;;;;;;4978817;28;20176;-78
2020/12/19 10:43:56;;;;;;;20.67;13.60;;;;;;;;;;4979133;28;20221;-78
2020/12/19 10:46:26;;;;;;;34.40;17.00;;;;;;;;;;4967725;28;20269;-78
2020/12/19 10:48:52;;;;;;;33.60;18.10;;;;;;;;;;4979132;28;20667;-78
2020/12/19 10:51:28;;;;;;;40.87;21.27;;;;;;;;;;4978913;28;20218;-78
2020/12/19 10:53:55;;;;;;;49.77;23.17;;;;;;;;;;4979059;28;20234;-78
2020/12/19 10:56:21;;;;;;;52.83;23.83;;;;;;;;;;4978739;28;20685;-78
2020/12/19 10:58:47;;;;;;;65.50;26.23;;;;;;;;;;4978665;28;20176;-78
2020/12/19 11:01:13;;;;;;;45.83;23.20;;;;;;;;;;4979000;28;20184;-79
2020/12/19 11:03:43;;;;;;;42.73;19.10;;;;;;;;;;4977417;28;20208;-77
2020/12/19 11:06:19;;;;;;;43.57;20.63;;;;;;;;;;4977430;28;20181;-77
2020/12/19 11:08:45;;;;;;;54.70;21.47;;;;;;;;;;4979038;28;20552;-78
2020/12/19 11:11:12;;;;;;;34.77;20.43;;;;;;;;;;4978812;28;20176;-77
2020/12/19 11:13:38;;;;;;;39.63;21.63;;;;;;;;;;4978472;28;20662;-77
2020/12/19 11:16:04;;;;;;;37.80;21.97;;;;;;;;;;4978535;28;20588;-77
2020/12/19 11:18:30;;;;;;;32.73;20.20;;;;;;;;;;4978310;28;20192;-78
2020/12/19 11:20:56;;;;;;;33.47;19.40;;;;;;;;;;4978330;28;20239;-77
2020/12/19 11:23:23;;;;;;;38.37;22.43;;;;;;;;;;4978124;28;20584;-79
2020/12/19 11:25:49;;;;;;;42.90;22.43;;;;;;;;;;4978376;28;20176;-77
2020/12/19 11:28:15;;;;;;;39.37;23.70;;;;;;;;;;4978564;28;20259;-77
2020/12/19 11:30:42;;;;;;;31.07;20.37;;;;;;;;;;4979348;28;20181;-78
2020/12/19 11:33:08;;;;;;;27.40;17.03;;;;;;;;;;4978706;28;20195;-77
2020/12/19 11:35:34;;;;;;;22.33;16.77;;;;;;;;;;4974733;28;20202;-78
2020/12/19 11:38:00;;;;;;;27.17;17.07;;;;;;;;;;4968498;28;20609;-77
2020/12/19 11:40:27;;;;;;;32.53;19.60;;;;;;;;;;4978331;28;20188;-78
2020/12/19 11:42:53;;;;;;;27.10;18.07;;;;;;;;;;4977001;28;20746;-77
2020/12/19 11:45:19;;;;;;;21.60;15.63;;;;;;;;;;4969120;28;20208;-77
2020/12/19 11:47:45;;;;;;;24.43;17.10;;;;;;;;;;4976608;28;20596;-78
2020/12/19 11:50:11;;;;;;;26.67;17.37;;;;;;;;;;4974348;28;20284;-79
2020/12/19 11:52:37;;;;;;;29.10;19.03;;;;;;;;;;4973112;28;20604;-77
2020/12/19 11:55:03;;;;;;;31.30;18.33;;;;;;;;;;4977964;28;20188;-78
2020/12/19 11:57:30;;;;;;;34.13;21.80;;;;;;;;;;4978155;28;20238;-77
2020/12/19 11:59:56;;;;;;;31.93;21.00;;;;;;;;;;4977718;28;20173;-78
2020/12/19 12:02:22;;;;;;;33.07;22.27;;;;;;;;;;4977088;28;20208;-77
2020/12/19 12:04:48;;;;;;;33.33;23.60;;;;;;;;;;4977041;28;20188;-78
2020/12/19 12:07:15;;;;;;;24.03;16.40;;;;;;;;;;4976908;28;20202;-77
2020/12/19 12:09:41;;;;;;;33.93;22.37;;;;;;;;;;4975689;28;20274;-78
2020/12/19 12:12:07;;;;;;;27.77;19.20;;;;;;;;;;4979782;28;20220;-77
2020/12/19 12:14:33;;;;;;;27.10;18.57;;;;;;;;;;4984713;28;20184;-77
2020/12/19 12:17:00;;;;;;;27.93;18.70;;;;;;;;;;4983386;28;20551;-77
2020/12/19 12:19:26;;;;;;;34.10;19.73;;;;;;;;;;4977717;28;20580;-77
2020/12/19 12:21:52;;;;;;;33.83;20.50;;;;;;;;;;4975434;28;20693;-78
2020/12/19 12:24:19;;;;;;;25.10;18.63;;;;;;;;;;4976923;28;20187;-77
2020/12/19 12:26:45;;;;;;;27.23;18.77;;;;;;;;;;4976963;28;20211;-78
2020/12/19 12:29:12;;;;;;;39.43;23.00;;;;;;;;;;4976952;28;20176;-77
2020/12/19 12:31:40;;;;;;;32.93;21.40;;;;;;;;;;4976735;28;20191;-77
2020/12/19 12:34:06;;;;;;;35.07;22.83;;;;;;;;;;4976432;28;20209;-76
2020/12/19 12:36:32;;;;;;;33.20;21.80;;;;;;;;;;4975411;28;20207;-77
2020/12/19 12:39:00;;;;;;;33.83;21.97;;;;;;;;;;4976944;28;20179;-77
2020/12/19 12:41:26;;;;;;;38.50;24.27;;;;;;;;;;4976674;28;20732;-77
2020/12/19 12:43:52;;;;;;;40.93;24.17;;;;;;;;;;4977202;28;20204;-78
2020/12/19 12:46:19;;;;;;;46.97;26.60;;;;;;;;;;4968990;28;20588;-78
2020/12/19 12:48:47;;;;;;;46.40;25.97;;;;;;;;;;4978127;28;20180;-78
2020/12/19 12:51:14;;;;;;;45.93;26.73;;;;;;;;;;4977899;28;20595;-78
2020/12/19 12:53:40;;;;;;;49.40;27.63;;;;;;;;;;4977836;28;20695;-78
2020/12/19 12:56:06;;;;;;;53.23;28.87;;;;;;;;;;4977995;28;20543;-78
2020/12/19 12:58:33;;;;;;;48.97;27.33;;;;;;;;;;4978069;28;20176;-78
2020/12/19 13:00:59;;;;;;;44.43;26.57;;;;;;;;;;4978028;28;20674;-78
2020/12/19 13:03:25;;;;;;;42.80;26.30;;;;;;;;;;4976731;28;20211;-78
2020/12/19 13:05:51;;;;;;;36.20;22.53;;;;;;;;;;4977402;28;20176;-78
2020/12/19 13:08:17;;;;;;;31.43;19.97;;;;;;;;;;4976002;28;20208;-78
2020/12/19 13:10:43;;;;;;;27.53;19.73;;;;;;;;;;4976083;28;20176;-78
2020/12/19 13:13:10;;;;;;;35.47;22.13;;;;;;;;;;4976967;28;20180;-79
2020/12/19 13:15:37;;;;;;;36.27;23.43;;;;;;;;;;4977026;28;20725;-78
2020/12/19 13:18:03;;;;;;;37.30;23.23;;;;;;;;;;4977124;28;20220;-77
2020/12/19 13:20:30;;;;;;;39.90;24.03;;;;;;;;;;4977029;28;20204;-78
2020/12/19 13:22:56;;;;;;;38.03;23.03;;;;;;;;;;4977248;28;20204;-77
2020/12/19 13:25:23;;;;;;;38.67;24.27;;;;;;;;;;4975551;28;20694;-78
2020/12/19 13:27:49;;;;;;;38.97;23.80;;;;;;;;;;4976815;28;20683;-78
2020/12/19 13:30:15;;;;;;;34.87;22.83;;;;;;;;;;4977166;28;20639;-78
2020/12/19 13:32:41;;;;;;;42.03;26.30;;;;;;;;;;4965610;28;20670;-79
2020/12/19 13:35:08;;;;;;;49.33;27.73;;;;;;;;;;4970822;28;20320;-78
2020/12/19 13:37:34;;;;;;;50.27;30.07;;;;;;;;;;4976945;28;20212;-78
2020/12/19 13:40:05;;;;;;;55.47;31.73;;;;;;;;;;4976636;28;20192;-78
2020/12/19 13:42:34;;;;;;;68.27;37.53;;;;;;;;;;4976415;28;20275;-78
2020/12/19 13:45:01;;;;;;;55.97;33.03;;;;;;;;;;4970856;28;20660;-78
2020/12/19 13:47:27;;;;;;;70.07;35.80;;;;;;;;;;4973297;28;20208;-78
2020/12/19 13:49:54;;;;;;;64.30;35.70;;;;;;;;;;4974684;28;20202;-77
2020/12/19 13:52:20;;;;;;;66.27;34.30;;;;;;;;;;4971679;28;20187;-77
2020/12/19 13:54:46;;;;;;;65.50;33.97;;;;;;;;;;4975007;28;20708;-78
2020/12/19 13:57:13;;;;;;;66.60;34.97;;;;;;;;;;4976412;28;20236;-77
2020/12/19 13:59:39;;;;;;;59.83;32.73;;;;;;;;;;4975667;28;20189;-78
2020/12/19 14:02:07;;;;;;;68.83;34.23;;;;;;;;;;4976255;28;20287;-78
2020/12/19 14:04:36;;;;;;;75.17;37.30;;;;;;;;;;4976698;28;20180;-78
2020/12/19 14:07:03;;;;;;;64.60;34.03;;;;;;;;;;4976492;28;20254;-78
2020/12/19 14:09:29;;;;;;;76.33;36.30;;;;;;;;;;4976381;28;20176;-78
2020/12/19 14:11:55;;;;;;;63.20;33.47;;;;;;;;;;4976102;28;20179;-77
2020/12/19 14:14:21;;;;;;;57.27;32.27;;;;;;;;;;4973150;28;20177;-76
2020/12/19 14:16:47;;;;;;;61.57;33.10;;;;;;;;;;4974673;28;20279;-78
2020/12/19 14:19:14;;;;;;;54.07;29.70;;;;;;;;;;4974667;28;20189;-78